sensor_id;sensor_type;location;lat;lon;timestamp;pressure;altitude;pressure_sealevel;temperature;humidity
47082;BME280;33066;49.296;14.470;2023-09-08T00:02:00;97497.17;;;23.66;34.33
47082;BME280;33066;49.296;14.470;2023-09-08T00:04:25;97498.74;;;23.65;34.44
47082;BME280;33066;49.296;14.470;2023-09-08T00:06:51;97499.42;;;23.63;34.48
47082;BME280;33066;49.296;14.470;2023-09-08T00:09:17;97500.43;;;23.59;34.50
47082;BME280;33066;49.296;14.470;2023-09-08T00:11:42;97497.74;;;23.53;34.47
47082;BME280;33066;49.296;14.470;2023-09-08T00:14:07;97498.03;;;23.49;34.34
47082;BME280;33066;49.296;14.470;2023-09-08T00:16:32;97500.62;;;23.67;34.53
47082;BME280;33066;49.296;14.470;2023-09-08T00:18:58;97497.84;;;23.58;34.60
47082;BME280;33066;49.296;14.470;2023-09-08T00:21:24;97496.28;;;23.47;34.61
47082;BME280;33066;49.296;14.470;2023-09-08T00:23:49;97493.25;;;23.41;34.63
47082;BME280;33066;49.296;14.470;2023-09-08T00:26:14;97496.83;;;23.35;34.59
47082;BME280;33066;49.296;14.470;2023-09-08T00:28:39;97498.84;;;23.25;34.69
47082;BME280;33066;49.296;14.470;2023-09-08T00:31:05;97497.90;;;23.23;34.79
47082;BME280;33066;49.296;14.470;2023-09-08T00:33:30;97496.46;;;23.24;34.79
47082;BME280;33066;49.296;14.470;2023-09-08T00:35:56;97493.69;;;23.54;34.93
47082;BME280;33066;49.296;14.470;2023-09-08T00:38:21;97491.69;;;23.30;34.86
47082;BME280;33066;49.296;14.470;2023-09-08T00:40:46;97490.12;;;23.25;34.74
47082;BME280;33066;49.296;14.470;2023-09-08T00:43:12;97491.81;;;23.36;34.87
47082;BME280;33066;49.296;14.470;2023-09-08T00:45:40;97491.10;;;23.20;34.93
47082;BME280;33066;49.296;14.470;2023-09-08T00:48:03;97493.17;;;22.87;35.12
47082;BME280;33066;49.296;14.470;2023-09-08T00:50:27;97495.87;;;23.01;35.19
47082;BME280;33066;49.296;14.470;2023-09-08T00:52:52;97495.03;;;22.91;35.28
47082;BME280;33066;49.296;14.470;2023-09-08T00:55:18;97493.30;;;22.60;35.39
47082;BME280;33066;49.296;14.470;2023-09-08T00:57:43;97495.85;;;22.87;35.49
47082;BME280;33066;49.296;14.470;2023-09-08T01:00:09;97492.43;;;22.64;35.36
47082;BME280;33066;49.296;14.470;2023-09-08T01:02:33;97492.22;;;22.92;35.30
47082;BME280;33066;49.296;14.470;2023-09-08T01:04:58;97493.35;;;22.90;35.24
47082;BME280;33066;49.296;14.470;2023-09-08T01:07:24;97493.67;;;22.84;35.36
47082;BME280;33066;49.296;14.470;2023-09-08T01:09:49;97495.61;;;22.60;35.23
47082;BME280;33066;49.296;14.470;2023-09-08T01:12:15;97493.31;;;22.97;35.22
47082;BME280;33066;49.296;14.470;2023-09-08T01:14:39;97491.95;;;22.65;35.35
47082;BME280;33066;49.296;14.470;2023-09-08T01:17:04;97490.85;;;22.58;35.28
47082;BME280;33066;49.296;14.470;2023-09-08T01:19:30;97487.91;;;22.72;35.46
47082;BME280;33066;49.296;14.470;2023-09-08T01:22:08;97486.21;;;22.48;35.34
47082;BME280;33066;49.296;14.470;2023-09-08T01:24:32;97486.05;;;22.92;35.29
47082;BME280;33066;49.296;14.470;2023-09-08T01:26:46;97484.25;;;22.67;35.39
47082;BME280;33066;49.296;14.470;2023-09-08T01:29:12;97480.30;;;22.64;35.44
47082;BME280;33066;49.296;14.470;2023-09-08T01:31:36;97477.26;;;22.33;35.51
47082;BME280;33066;49.296;14.470;2023-09-08T01:34:02;97476.61;;;22.57;35.44
47082;BME280;33066;49.296;14.470;2023-09-08T01:36:27;97475.56;;;22.48;35.47
47082;BME280;33066;49.296;14.470;2023-09-08T01:38:52;97472.20;;;22.41;35.61
47082;BME280;33066;49.296;14.470;2023-09-08T01:41:18;97470.60;;;22.16;35.54
47082;BME280;33066;49.296;14.470;2023-09-08T01:43:42;97470.46;;;22.34;35.64
47082;BME280;33066;49.296;14.470;2023-09-08T01:46:08;97464.62;;;22.04;35.53
47082;BME280;33066;49.296;14.470;2023-09-08T01:48:33;97460.41;;;22.41;35.56
47082;BME280;33066;49.296;14.470;2023-09-08T01:50:58;97460.42;;;22.03;35.76
47082;BME280;33066;49.296;14.470;2023-09-08T01:53:24;97462.17;;;21.98;35.87
47082;BME280;33066;49.296;14.470;2023-09-08T01:55:49;97458.73;;;21.93;36.00
47082;BME280;33066;49.296;14.470;2023-09-08T01:58:15;97457.45;;;22.22;35.87
47082;BME280;33066;49.296;14.470;2023-09-08T02:00:40;97460.76;;;22.21;35.85
47082;BME280;33066;49.296;14.470;2023-09-08T02:03:06;97462.14;;;21.96;35.86
47082;BME280;33066;49.296;14.470;2023-09-08T02:05:31;97464.43;;;21.93;35.94
47082;BME280;33066;49.296;14.470;2023-09-08T02:07:56;97463.91;;;22.10;36.05
47082;BME280;33066;49.296;14.470;2023-09-08T02:10:21;97460.29;;;22.15;36.10
47082;BME280;33066;49.296;14.470;2023-09-08T02:12:47;97457.50;;;21.76;36.00
47082;BME280;33066;49.296;14.470;2023-09-08T02:15:12;97455.47;;;21.99;35.79
47082;BME280;33066;49.296;14.470;2023-09-08T02:17:37;97457.60;;;21.96;35.83
47082;BME280;33066;49.296;14.470;2023-09-08T02:20:03;97458.62;;;21.65;35.78
47082;BME280;33066;49.296;14.470;2023-09-08T02:22:28;97459.41;;;22.05;35.76
47082;BME280;33066;49.296;14.470;2023-09-08T02:24:53;97457.64;;;21.96;35.65
47082;BME280;33066;49.296;14.470;2023-09-08T02:27:19;97463.03;;;21.83;35.76
47082;BME280;33066;49.296;14.470;2023-09-08T02:29:44;97460.28;;;21.73;35.88
47082;BME280;33066;49.296;14.470;2023-09-08T02:32:09;97460.25;;;21.72;36.05
47082;BME280;33066;49.296;14.470;2023-09-08T02:34:36;97459.59;;;21.99;35.91
47082;BME280;33066;49.296;14.470;2023-09-08T02:37:01;97458.23;;;21.73;35.96
47082;BME280;33066;49.296;14.470;2023-09-08T02:39:26;97459.42;;;21.69;35.96
47082;BME280;33066;49.296;14.470;2023-09-08T02:41:51;97457.69;;;21.68;35.92
47082;BME280;33066;49.296;14.470;2023-09-08T02:44:17;97457.53;;;21.64;35.84
47082;BME280;33066;49.296;14.470;2023-09-08T02:46:42;97453.72;;;21.58;35.88
47082;BME280;33066;49.296;14.470;2023-09-08T02:49:07;97454.58;;;21.76;35.92
47082;BME280;33066;49.296;14.470;2023-09-08T02:51:32;97456.05;;;21.73;35.93
47082;BME280;33066;49.296;14.470;2023-09-08T02:53:58;97454.82;;;21.67;35.81
47082;BME280;33066;49.296;14.470;2023-09-08T02:56:23;97449.12;;;21.37;35.87
47082;BME280;33066;49.296;14.470;2023-09-08T02:58:48;97448.45;;;21.56;35.87
47082;BME280;33066;49.296;14.470;2023-09-08T03:01:15;97446.08;;;21.48;35.83
47082;BME280;33066;49.296;14.470;2023-09-08T03:03:39;97441.85;;;21.62;35.84
47082;BME280;33066;49.296;14.470;2023-09-08T03:06:04;97444.16;;;21.31;35.78
47082;BME280;33066;49.296;14.470;2023-09-08T03:08:29;97445.54;;;21.22;35.92
47082;BME280;33066;49.296;14.470;2023-09-08T03:13:02;97450.49;;;21.29;35.51
47082;BME280;33066;49.296;14.470;2023-09-08T03:15:27;97446.34;;;21.20;35.72
47082;BME280;33066;49.296;14.470;2023-09-08T03:17:53;97448.09;;;21.22;35.78
47082;BME280;33066;49.296;14.470;2023-09-08T03:20:19;97447.83;;;21.21;35.74
47082;BME280;33066;49.296;14.470;2023-09-08T03:22:44;97444.53;;;21.13;35.62
47082;BME280;33066;49.296;14.470;2023-09-08T03:25:09;97445.24;;;21.21;35.73
47082;BME280;33066;49.296;14.470;2023-09-08T03:27:35;97445.89;;;20.83;35.90
47082;BME280;33066;49.296;14.470;2023-09-08T03:30:01;97447.65;;;21.01;35.99
47082;BME280;33066;49.296;14.470;2023-09-08T03:32:26;97448.87;;;21.01;35.87
47082;BME280;33066;49.296;14.470;2023-09-08T03:34:51;97449.63;;;20.93;35.86
47082;BME280;33066;49.296;14.470;2023-09-08T03:37:17;97446.87;;;20.60;35.98
47082;BME280;33066;49.296;14.470;2023-09-08T03:39:42;97444.83;;;20.99;36.03
47082;BME280;33066;49.296;14.470;2023-09-08T03:42:08;97445.65;;;20.66;36.21
47082;BME280;33066;49.296;14.470;2023-09-08T03:44:33;97445.22;;;20.63;36.19
47082;BME280;33066;49.296;14.470;2023-09-08T03:46:58;97445.09;;;20.60;36.21
47082;BME280;33066;49.296;14.470;2023-09-08T03:49:24;97444.56;;;20.78;36.38
47082;BME280;33066;49.296;14.470;2023-09-08T03:51:49;97442.79;;;20.73;36.43
47082;BME280;33066;49.296;14.470;2023-09-08T03:54:14;97446.22;;;20.73;36.53
47082;BME280;33066;49.296;14.470;2023-09-08T03:56:40;97447.40;;;20.56;36.36
47082;BME280;33066;49.296;14.470;2023-09-08T03:59:06;97444.71;;;20.84;36.30
47082;BME280;33066;49.296;14.470;2023-09-08T04:01:31;97445.30;;;20.92;36.19
47082;BME280;33066;49.296;14.470;2023-09-08T04:03:56;97447.07;;;20.66;36.15
47082;BME280;33066;49.296;14.470;2023-09-08T04:06:22;97449.95;;;20.87;36.15
47082;BME280;33066;49.296;14.470;2023-09-08T04:08:48;97447.16;;;20.63;36.20
47082;BME280;33066;49.296;14.470;2023-09-08T04:11:13;97446.03;;;20.68;36.20
47082;BME280;33066;49.296;14.470;2023-09-08T04:13:38;97447.05;;;20.93;36.12
47082;BME280;33066;49.296;14.470;2023-09-08T04:16:04;97449.46;;;20.61;36.05
47082;BME280;33066;49.296;14.470;2023-09-08T04:18:29;97450.21;;;20.78;36.07
47082;BME280;33066;49.296;14.470;2023-09-08T04:20:54;97452.73;;;20.72;35.98
47082;BME280;33066;49.296;14.470;2023-09-08T04:23:19;97453.56;;;20.38;35.93
47082;BME280;33066;49.296;14.470;2023-09-08T04:25:45;97459.00;;;20.55;35.92
47082;BME280;33066;49.296;14.470;2023-09-08T04:28:10;97455.62;;;20.20;35.97
47082;BME280;33066;49.296;14.470;2023-09-08T04:30:36;97455.10;;;20.35;35.94
47082;BME280;33066;49.296;14.470;2023-09-08T04:33:01;97456.31;;;20.28;36.09
47082;BME280;33066;49.296;14.470;2023-09-08T04:35:26;97457.91;;;20.27;36.01
47082;BME280;33066;49.296;14.470;2023-09-08T04:37:51;97460.16;;;20.22;36.05
47082;BME280;33066;49.296;14.470;2023-09-08T04:40:17;97461.94;;;20.20;35.98
47082;BME280;33066;49.296;14.470;2023-09-08T04:42:42;97462.46;;;20.21;35.94
47082;BME280;33066;49.296;14.470;2023-09-08T04:45:08;97461.61;;;20.13;36.08
47082;BME280;33066;49.296;14.470;2023-09-08T04:47:33;97460.05;;;20.27;36.20
47082;BME280;33066;49.296;14.470;2023-09-08T04:49:58;97459.32;;;19.97;36.33
47082;BME280;33066;49.296;14.470;2023-09-08T04:52:23;97463.32;;;20.25;36.51
47082;BME280;33066;49.296;14.470;2023-09-08T04:54:49;97465.87;;;20.09;36.40
47082;BME280;33066;49.296;14.470;2023-09-08T04:57:14;97469.69;;;20.09;36.37
47082;BME280;33066;49.296;14.470;2023-09-08T04:59:39;97473.36;;;20.28;36.41
47082;BME280;33066;49.296;14.470;2023-09-08T05:02:04;97474.86;;;20.52;36.51
47082;BME280;33066;49.296;14.470;2023-09-08T05:04:29;97478.12;;;19.85;36.69
47082;BME280;33066;49.296;14.470;2023-09-08T05:06:55;97476.57;;;20.21;36.39
47082;BME280;33066;49.296;14.470;2023-09-08T05:09:20;97482.56;;;20.53;36.34
47082;BME280;33066;49.296;14.470;2023-09-08T05:11:46;97481.92;;;20.46;36.34
47082;BME280;33066;49.296;14.470;2023-09-08T05:14:11;97482.95;;;20.37;36.51
47082;BME280;33066;49.296;14.470;2023-09-08T05:16:36;97482.68;;;20.35;36.74
47082;BME280;33066;49.296;14.470;2023-09-08T05:19:02;97483.97;;;20.39;36.70
47082;BME280;33066;49.296;14.470;2023-09-08T05:21:28;97488.95;;;20.40;36.79
47082;BME280;33066;49.296;14.470;2023-09-08T05:23:53;97491.61;;;20.44;36.87
47082;BME280;33066;49.296;14.470;2023-09-08T05:26:18;97492.93;;;20.20;37.14
47082;BME280;33066;49.296;14.470;2023-09-08T05:28:43;97496.88;;;20.48;37.11
47082;BME280;33066;49.296;14.470;2023-09-08T05:31:09;97499.65;;;20.55;37.12
47082;BME280;33066;49.296;14.470;2023-09-08T05:33:34;97497.78;;;20.37;37.15
47082;BME280;33066;49.296;14.470;2023-09-08T05:35:59;97497.18;;;20.71;37.19
47082;BME280;33066;49.296;14.470;2023-09-08T05:38:24;97493.99;;;20.72;37.26
47082;BME280;33066;49.296;14.470;2023-09-08T05:40:50;97493.94;;;20.77;37.32
47082;BME280;33066;49.296;14.470;2023-09-08T05:43:15;97493.77;;;20.83;37.14
47082;BME280;33066;49.296;14.470;2023-09-08T05:45:40;97492.92;;;20.64;37.15
47082;BME280;33066;49.296;14.470;2023-09-08T05:48:06;97495.34;;;20.89;37.17
47082;BME280;33066;49.296;14.470;2023-09-08T05:50:31;97493.89;;;20.92;37.22
47082;BME280;33066;49.296;14.470;2023-09-08T05:52:56;97494.15;;;20.76;37.32
47082;BME280;33066;49.296;14.470;2023-09-08T05:55:21;97495.89;;;20.85;37.30
47082;BME280;33066;49.296;14.470;2023-09-08T05:57:46;97495.54;;;21.19;37.21
47082;BME280;33066;49.296;14.470;2023-09-08T06:00:12;97496.98;;;20.82;37.62
47082;BME280;33066;49.296;14.470;2023-09-08T06:02:37;97496.47;;;21.15;37.03
47082;BME280;33066;49.296;14.470;2023-09-08T06:05:02;97498.19;;;21.28;36.81
47082;BME280;33066;49.296;14.470;2023-09-08T06:07:28;97497.84;;;21.13;36.76
47082;BME280;33066;49.296;14.470;2023-09-08T06:09:53;97497.28;;;21.41;36.63
47082;BME280;33066;49.296;14.470;2023-09-08T06:12:18;97496.39;;;21.23;36.76
47082;BME280;33066;49.296;14.470;2023-09-08T06:14:44;97497.65;;;21.54;36.53
47082;BME280;33066;49.296;14.470;2023-09-08T06:17:10;97495.55;;;21.36;36.58
47082;BME280;33066;49.296;14.470;2023-09-08T06:19:35;97493.60;;;21.42;36.58
47082;BME280;33066;49.296;14.470;2023-09-08T06:22:00;97494.26;;;21.29;36.69
47082;BME280;33066;49.296;14.470;2023-09-08T06:24:26;97494.88;;;21.59;36.60
47082;BME280;33066;49.296;14.470;2023-09-08T06:26:51;97493.75;;;21.67;36.66
47082;BME280;33066;49.296;14.470;2023-09-08T06:29:16;97492.29;;;21.74;36.76
47082;BME280;33066;49.296;14.470;2023-09-08T06:31:41;97497.03;;;21.82;36.86
47082;BME280;33066;49.296;14.470;2023-09-08T06:34:06;97496.97;;;21.92;36.95
47082;BME280;33066;49.296;14.470;2023-09-08T06:36:32;97494.21;;;21.99;36.90
47082;BME280;33066;49.296;14.470;2023-09-08T06:38:57;97492.44;;;22.10;37.00
47082;BME280;33066;49.296;14.470;2023-09-08T06:41:22;97486.70;;;22.19;36.97
47082;BME280;33066;49.296;14.470;2023-09-08T06:43:48;97485.25;;;22.04;37.05
47082;BME280;33066;49.296;14.470;2023-09-08T06:46:14;97483.09;;;22.13;37.08
47082;BME280;33066;49.296;14.470;2023-09-08T06:48:39;97483.12;;;21.96;37.24
47082;BME280;33066;49.296;14.470;2023-09-08T06:51:04;97484.46;;;22.50;37.37
47082;BME280;33066;49.296;14.470;2023-09-08T06:53:29;97484.85;;;22.06;37.42
47082;BME280;33066;49.296;14.470;2023-09-08T06:55:54;97485.95;;;22.14;37.31
47082;BME280;33066;49.296;14.470;2023-09-08T06:58:20;97488.20;;;22.22;37.41
47082;BME280;33066;49.296;14.470;2023-09-08T07:00:46;97487.33;;;22.53;37.37
47082;BME280;33066;49.296;14.470;2023-09-08T07:03:12;97492.27;;;22.37;37.53
47082;BME280;33066;49.296;14.470;2023-09-08T07:05:39;97486.86;;;22.45;37.53
47082;BME280;33066;49.296;14.470;2023-09-08T07:08:04;97488.65;;;22.54;37.45
47082;BME280;33066;49.296;14.470;2023-09-08T07:10:28;97484.65;;;22.59;37.43
47082;BME280;33066;49.296;14.470;2023-09-08T07:12:54;97484.86;;;22.69;37.46
47082;BME280;33066;49.296;14.470;2023-09-08T07:15:19;97483.25;;;22.77;37.55
47082;BME280;33066;49.296;14.470;2023-09-08T07:17:44;97481.14;;;22.56;37.70
47082;BME280;33066;49.296;14.470;2023-09-08T07:20:10;97480.81;;;22.88;37.72
47082;BME280;33066;49.296;14.470;2023-09-08T07:22:35;97479.12;;;22.92;37.69
47082;BME280;33066;49.296;14.470;2023-09-08T07:25:01;97480.12;;;23.01;37.82
47082;BME280;33066;49.296;14.470;2023-09-08T07:27:26;97480.39;;;23.09;37.82
47082;BME280;33066;49.296;14.470;2023-09-08T07:29:52;97481.06;;;22.96;37.73
47082;BME280;33066;49.296;14.470;2023-09-08T07:32:17;97480.82;;;23.28;37.89
47082;BME280;33066;49.296;14.470;2023-09-08T07:34:42;97479.13;;;23.15;37.71
47082;BME280;33066;49.296;14.470;2023-09-08T07:37:07;97481.40;;;23.27;37.53
47082;BME280;33066;49.296;14.470;2023-09-08T07:39:32;97476.61;;;23.11;37.49
47082;BME280;33066;49.296;14.470;2023-09-08T07:41:57;97476.39;;;23.68;37.50
47082;BME280;33066;49.296;14.470;2023-09-08T07:44:22;97471.33;;;23.27;37.46
47082;BME280;33066;49.296;14.470;2023-09-08T07:46:48;97470.27;;;22.58;37.18
47082;BME280;33066;49.296;14.470;2023-09-08T07:49:13;97466.72;;;24.28;36.32
47082;BME280;33066;49.296;14.470;2023-09-08T07:51:38;97469.25;;;23.90;36.36
47082;BME280;33066;49.296;14.470;2023-09-08T07:54:04;97470.11;;;24.06;36.68
47082;BME280;33066;49.296;14.470;2023-09-08T07:56:28;97467.10;;;23.74;36.65
47082;BME280;33066;49.296;14.470;2023-09-08T07:58:53;97466.62;;;23.97;36.94
47082;BME280;33066;49.296;14.470;2023-09-08T08:01:18;97468.44;;;24.03;35.95
47082;BME280;33066;49.296;14.470;2023-09-08T08:03:44;97472.45;;;23.80;35.98
47082;BME280;33066;49.296;14.470;2023-09-08T08:06:09;97467.17;;;24.13;36.04
47082;BME280;33066;49.296;14.470;2023-09-08T08:08:34;97467.68;;;23.94;35.46
47082;BME280;33066;49.296;14.470;2023-09-08T08:10:59;97466.78;;;23.96;34.97
47082;BME280;33066;49.296;14.470;2023-09-08T08:13:24;97466.45;;;24.27;35.03
47082;BME280;33066;49.296;14.470;2023-09-08T08:15:50;97465.04;;;24.31;34.43
47082;BME280;33066;49.296;14.470;2023-09-08T08:18:16;97458.48;;;24.40;34.05
47082;BME280;33066;49.296;14.470;2023-09-08T08:20:41;97461.53;;;23.99;33.83
47082;BME280;33066;49.296;14.470;2023-09-08T08:23:07;97458.70;;;24.52;33.85
47082;BME280;33066;49.296;14.470;2023-09-08T08:25:31;97453.90;;;24.38;33.83
47082;BME280;33066;49.296;14.470;2023-09-08T08:27:56;97456.42;;;24.64;33.38
47082;BME280;33066;49.296;14.470;2023-09-08T08:30:21;97447.26;;;24.67;33.41
47082;BME280;33066;49.296;14.470;2023-09-08T08:32:46;97440.20;;;24.76;33.66
47082;BME280;33066;49.296;14.470;2023-09-08T08:35:11;97443.67;;;24.83;33.48
47082;BME280;33066;49.296;14.470;2023-09-08T08:37:36;97446.37;;;24.36;33.07
47082;BME280;33066;49.296;14.470;2023-09-08T08:40:02;97442.97;;;24.96;33.14
47082;BME280;33066;49.296;14.470;2023-09-08T08:42:31;97445.71;;;24.51;33.08
47082;BME280;33066;49.296;14.470;2023-09-08T08:44:53;97439.80;;;24.91;33.29
47082;BME280;33066;49.296;14.470;2023-09-08T08:47:19;97441.20;;;23.66;32.97
47082;BME280;33066;49.296;14.470;2023-09-08T08:49:44;97438.73;;;25.38;32.38
47082;BME280;33066;49.296;14.470;2023-09-08T08:52:10;97437.25;;;25.49;32.31
47082;BME280;33066;49.296;14.470;2023-09-08T08:54:35;97434.77;;;25.43;32.60
47082;BME280;33066;49.296;14.470;2023-09-08T08:56:59;97433.83;;;25.42;32.03
47082;BME280;33066;49.296;14.470;2023-09-08T08:59:24;97434.99;;;25.38;31.61
47082;BME280;33066;49.296;14.470;2023-09-08T09:01:50;97435.25;;;25.42;31.99
47082;BME280;33066;49.296;14.470;2023-09-08T09:04:16;97436.19;;;25.41;31.64
47082;BME280;33066;49.296;14.470;2023-09-08T09:06:42;97434.22;;;25.25;31.89
47082;BME280;33066;49.296;14.470;2023-09-08T09:09:07;97434.31;;;25.33;31.53
47082;BME280;33066;49.296;14.470;2023-09-08T09:11:33;97428.42;;;25.68;31.56
47082;BME280;33066;49.296;14.470;2023-09-08T09:13:58;97428.42;;;25.74;31.48
47082;BME280;33066;49.296;14.470;2023-09-08T09:16:24;97425.34;;;25.60;31.29
47082;BME280;33066;49.296;14.470;2023-09-08T09:18:55;97427.64;;;25.93;31.45
47082;BME280;33066;49.296;14.470;2023-09-08T09:21:16;97419.77;;;26.04;30.72
47082;BME280;33066;49.296;14.470;2023-09-08T09:23:42;97419.85;;;25.94;31.18
47082;BME280;33066;49.296;14.470;2023-09-08T09:26:07;97420.87;;;25.82;30.86
47082;BME280;33066;49.296;14.470;2023-09-08T09:28:33;97411.34;;;26.22;30.77
47082;BME280;33066;49.296;14.470;2023-09-08T09:30:58;97413.74;;;26.30;30.32
47082;BME280;33066;49.296;14.470;2023-09-08T09:33:23;97411.64;;;26.62;30.22
47082;BME280;33066;49.296;14.470;2023-09-08T09:35:51;97408.73;;;26.25;29.92
47082;BME280;33066;49.296;14.470;2023-09-08T09:38:15;97414.23;;;26.36;30.06
47082;BME280;33066;49.296;14.470;2023-09-08T09:40:41;97413.07;;;26.51;29.82
47082;BME280;33066;49.296;14.470;2023-09-08T09:43:07;97411.46;;;26.39;29.63
47082;BME280;33066;49.296;14.470;2023-09-08T09:45:33;97410.78;;;26.67;29.05
47082;BME280;33066;49.296;14.470;2023-09-08T09:47:58;97412.93;;;26.75;28.97
47082;BME280;33066;49.296;14.470;2023-09-08T09:50:28;97406.04;;;26.97;29.20
47082;BME280;33066;49.296;14.470;2023-09-08T09:52:50;97409.69;;;27.04;28.99
47082;BME280;33066;49.296;14.470;2023-09-08T09:55:15;97406.02;;;26.68;28.50
47082;BME280;33066;49.296;14.470;2023-09-08T09:57:41;97404.15;;;27.16;28.05
47082;BME280;33066;49.296;14.470;2023-09-08T10:00:08;97407.32;;;27.02;28.41
47082;BME280;33066;49.296;14.470;2023-09-08T10:02:32;97406.09;;;26.84;28.15
47082;BME280;33066;49.296;14.470;2023-09-08T10:07:24;97403.40;;;27.03;28.35
47082;BME280;33066;49.296;14.470;2023-09-08T10:09:50;97403.26;;;27.22;27.57
47082;BME280;33066;49.296;14.470;2023-09-08T10:12:16;97403.29;;;27.43;27.82
47082;BME280;33066;49.296;14.470;2023-09-08T10:14:42;97402.04;;;27.36;28.22
47082;BME280;33066;49.296;14.470;2023-09-08T10:17:11;97399.28;;;27.54;28.18
47082;BME280;33066;49.296;14.470;2023-09-08T10:19:33;97395.23;;;27.61;27.53
47082;BME280;33066;49.296;14.470;2023-09-08T10:22:00;97399.31;;;27.58;26.76
47082;BME280;33066;49.296;14.470;2023-09-08T10:24:26;97395.49;;;27.64;26.59
47082;BME280;33066;49.296;14.470;2023-09-08T10:26:55;97398.25;;;27.96;27.12
47082;BME280;33066;49.296;14.470;2023-09-08T10:29:15;97391.85;;;27.95;26.26
47082;BME280;33066;49.296;14.470;2023-09-08T10:31:42;97389.48;;;28.17;26.42
47082;BME280;33066;49.296;14.470;2023-09-08T10:34:07;97395.09;;;28.37;25.79
47082;BME280;33066;49.296;14.470;2023-09-08T10:36:34;97393.98;;;28.98;25.37
47082;BME280;33066;49.296;14.470;2023-09-08T10:41:27;97387.28;;;29.60;25.75
47082;BME280;33066;49.296;14.470;2023-09-08T10:43:55;97385.05;;;30.37;26.13
47082;BME280;33066;49.296;14.470;2023-09-08T10:46:22;97386.87;;;30.61;25.93
47082;BME280;33066;49.296;14.470;2023-09-08T10:48:41;97376.99;;;31.29;23.74
47082;BME280;33066;49.296;14.470;2023-09-08T10:51:05;97374.48;;;31.31;23.93
47082;BME280;33066;49.296;14.470;2023-09-08T10:53:31;97367.64;;;31.54;24.02
47082;BME280;33066;49.296;14.470;2023-09-08T10:55:57;97369.67;;;31.71;23.67
47082;BME280;33066;49.296;14.470;2023-09-08T10:58:31;97371.48;;;32.04;23.13
47082;BME280;33066;49.296;14.470;2023-09-08T11:00:51;97364.57;;;32.48;23.11
47082;BME280;33066;49.296;14.470;2023-09-08T11:03:13;97367.79;;;32.44;22.41
47082;BME280;33066;49.296;14.470;2023-09-08T11:05:39;97370.21;;;32.73;21.73
47082;BME280;33066;49.296;14.470;2023-09-08T11:08:05;97365.56;;;32.72;21.91
47082;BME280;33066;49.296;14.470;2023-09-08T11:10:30;97363.90;;;32.91;21.33
47082;BME280;33066;49.296;14.470;2023-09-08T11:12:56;97363.66;;;33.00;21.56
47082;BME280;33066;49.296;14.470;2023-09-08T11:15:22;97362.42;;;33.09;21.25
47082;BME280;33066;49.296;14.470;2023-09-08T11:17:47;97361.75;;;33.31;21.12
47082;BME280;33066;49.296;14.470;2023-09-08T11:20:13;97362.93;;;33.40;20.70
47082;BME280;33066;49.296;14.470;2023-09-08T11:22:40;97357.90;;;33.70;20.97
47082;BME280;33066;49.296;14.470;2023-09-08T11:25:07;97362.11;;;33.81;21.28
47082;BME280;33066;49.296;14.470;2023-09-08T11:27:31;97360.92;;;34.29;20.42
47082;BME280;33066;49.296;14.470;2023-09-08T11:29:57;97361.46;;;34.16;20.77
47082;BME280;33066;49.296;14.470;2023-09-08T11:32:21;97360.71;;;34.76;21.22
47082;BME280;33066;49.296;14.470;2023-09-08T11:34:47;97360.50;;;34.96;20.66
47082;BME280;33066;49.296;14.470;2023-09-08T11:37:13;97357.55;;;34.68;19.89
47082;BME280;33066;49.296;14.470;2023-09-08T11:39:38;97360.68;;;35.02;20.71
47082;BME280;33066;49.296;14.470;2023-09-08T11:42:04;97361.98;;;35.37;20.14
47082;BME280;33066;49.296;14.470;2023-09-08T11:44:29;97357.72;;;35.35;20.00
47082;BME280;33066;49.296;14.470;2023-09-08T11:46:54;97352.05;;;35.34;19.21
47082;BME280;33066;49.296;14.470;2023-09-08T11:49:20;97348.22;;;35.56;19.35
47082;BME280;33066;49.296;14.470;2023-09-08T11:51:46;97352.53;;;35.79;19.70
47082;BME280;33066;49.296;14.470;2023-09-08T11:54:12;97353.09;;;36.00;19.27
47082;BME280;33066;49.296;14.470;2023-09-08T11:56:37;97347.92;;;36.16;18.63
47082;BME280;33066;49.296;14.470;2023-09-08T11:59:04;97347.09;;;36.36;18.62
47082;BME280;33066;49.296;14.470;2023-09-08T12:01:28;97343.13;;;36.35;18.24
47082;BME280;33066;49.296;14.470;2023-09-08T12:03:54;97343.37;;;36.71;18.84
47082;BME280;33066;49.296;14.470;2023-09-08T12:06:19;97341.01;;;36.73;18.46
47082;BME280;33066;49.296;14.470;2023-09-08T12:08:46;97337.10;;;36.88;18.23
47082;BME280;33066;49.296;14.470;2023-09-08T12:11:11;97336.75;;;37.07;17.76
47082;BME280;33066;49.296;14.470;2023-09-08T12:13:36;97337.63;;;36.76;17.72
47082;BME280;33066;49.296;14.470;2023-09-08T12:16:01;97335.27;;;36.88;17.47
47082;BME280;33066;49.296;14.470;2023-09-08T12:18:37;97335.14;;;37.17;17.73
47082;BME280;33066;49.296;14.470;2023-09-08T12:23:19;97333.60;;;37.70;17.95
47082;BME280;33066;49.296;14.470;2023-09-08T12:25:45;97335.22;;;37.73;17.06
47082;BME280;33066;49.296;14.470;2023-09-08T12:28:09;97339.21;;;38.03;16.88
47082;BME280;33066;49.296;14.470;2023-09-08T12:30:34;97339.37;;;38.06;17.29
47082;BME280;33066;49.296;14.470;2023-09-08T12:33:01;97333.66;;;38.35;17.09
47082;BME280;33066;49.296;14.470;2023-09-08T12:35:26;97330.12;;;38.39;16.95
47082;BME280;33066;49.296;14.470;2023-09-08T12:37:56;97332.08;;;38.65;17.49
47082;BME280;33066;49.296;14.470;2023-09-08T12:40:17;97325.06;;;39.22;16.90
47082;BME280;33066;49.296;14.470;2023-09-08T12:42:43;97330.08;;;38.98;16.15
47082;BME280;33066;49.296;14.470;2023-09-08T12:45:08;97322.66;;;38.89;16.12
47082;BME280;33066;49.296;14.470;2023-09-08T12:47:34;97329.90;;;38.72;15.48
47082;BME280;33066;49.296;14.470;2023-09-08T12:49:58;97327.53;;;38.65;16.35